sensor_id;sensor_type;location;lat;lon;timestamp;P1;durP1;ratioP1;P2;durP2;ratioP2
70293;SDS011;72548;48.884;2.334;2023-08-31T00:03:48;8.55;;;2.25;;
70293;SDS011;72548;48.884;2.334;2023-08-31T00:06:14;8.37;;;1.43;;
70293;SDS011;72548;48.884;2.334;2023-08-31T00:08:39;6.30;;;1.20;;
70293;SDS011;72548;48.884;2.334;2023-08-31T00:11:04;9.83;;;1.90;;
70293;SDS011;72548;48.884;2.334;2023-08-31T00:13:32;6.25;;;1.30;;
70293;SDS011;72548;48.884;2.334;2023-08-31T00:22:27;11.05;;;1.92;;
70293;SDS011;72548;48.884;2.334;2023-08-31T00:31:20;8.07;;;1.50;;
70293;SDS011;72548;48.884;2.334;2023-08-31T00:37:10;10.60;;;2.20;;
70293;SDS011;72548;48.884;2.334;2023-08-31T00:40:06;8.10;;;1.90;;
70293;SDS011;72548;48.884;2.334;2023-08-31T00:42:37;8.65;;;1.30;;
70293;SDS011;72548;48.884;2.334;2023-08-31T00:45:05;8.40;;;1.90;;
70293;SDS011;72548;48.884;2.334;2023-08-31T00:47:31;7.13;;;1.43;;
70293;SDS011;72548;48.884;2.334;2023-08-31T00:53:18;5.32;;;1.42;;
70293;SDS011;72548;48.884;2.334;2023-08-31T00:55:44;9.00;;;1.50;;
70293;SDS011;72548;48.884;2.334;2023-08-31T00:58:10;8.25;;;0.70;;
70293;SDS011;72548;48.884;2.334;2023-08-31T01:03:42;7.35;;;1.77;;
70293;SDS011;72548;48.884;2.334;2023-08-31T01:06:38;8.38;;;1.02;;
70293;SDS011;72548;48.884;2.334;2023-08-31T01:09:30;11.82;;;2.03;;
70293;SDS011;72548;48.884;2.334;2023-08-31T01:12:18;7.00;;;1.57;;
70293;SDS011;72548;48.884;2.334;2023-08-31T01:14:56;6.18;;;1.30;;
70293;SDS011;72548;48.884;2.334;2023-08-31T01:17:25;12.05;;;1.80;;
70293;SDS011;72548;48.884;2.334;2023-08-31T01:19:54;8.10;;;1.35;;
70293;SDS011;72548;48.884;2.334;2023-08-31T01:22:27;6.88;;;1.45;;
70293;SDS011;72548;48.884;2.334;2023-08-31T01:27:25;6.72;;;1.45;;
70293;SDS011;72548;48.884;2.334;2023-08-31T01:29:53;7.57;;;1.45;;
70293;SDS011;72548;48.884;2.334;2023-08-31T01:32:22;7.70;;;1.20;;
70293;SDS011;72548;48.884;2.334;2023-08-31T01:34:53;8.07;;;1.13;;
70293;SDS011;72548;48.884;2.334;2023-08-31T01:43:13;7.03;;;1.67;;
70293;SDS011;72548;48.884;2.334;2023-08-31T01:45:39;5.00;;;1.27;;
70293;SDS011;72548;48.884;2.334;2023-08-31T01:50:52;9.03;;;1.67;;
70293;SDS011;72548;48.884;2.334;2023-08-31T01:53:17;8.52;;;1.35;;
70293;SDS011;72548;48.884;2.334;2023-08-31T02:04:29;8.10;;;1.80;;
70293;SDS011;72548;48.884;2.334;2023-08-31T02:10:16;7.32;;;1.30;;
70293;SDS011;72548;48.884;2.334;2023-08-31T02:12:44;5.57;;;1.85;;
70293;SDS011;72548;48.884;2.334;2023-08-31T02:15:09;6.65;;;1.60;;
70293;SDS011;72548;48.884;2.334;2023-08-31T02:17:35;5.77;;;0.77;;
70293;SDS011;72548;48.884;2.334;2023-08-31T02:20:02;7.80;;;1.20;;
70293;SDS011;72548;48.884;2.334;2023-08-31T02:22:49;5.85;;;1.10;;
70293;SDS011;72548;48.884;2.334;2023-08-31T02:25:21;7.70;;;1.50;;
70293;SDS011;72548;48.884;2.334;2023-08-31T02:27:53;7.45;;;1.60;;
70293;SDS011;72548;48.884;2.334;2023-08-31T02:30:21;6.43;;;1.85;;
70293;SDS011;72548;48.884;2.334;2023-08-31T02:32:46;4.65;;;1.27;;
70293;SDS011;72548;48.884;2.334;2023-08-31T02:35:12;8.10;;;1.57;;
70293;SDS011;72548;48.884;2.334;2023-08-31T02:37:37;6.67;;;1.00;;
70293;SDS011;72548;48.884;2.334;2023-08-31T02:40:03;4.97;;;0.80;;
70293;SDS011;72548;48.884;2.334;2023-08-31T02:42:29;6.57;;;1.10;;
70293;SDS011;72548;48.884;2.334;2023-08-31T02:45:00;11.63;;;2.28;;
70293;SDS011;72548;48.884;2.334;2023-08-31T02:47:26;6.68;;;1.45;;
70293;SDS011;72548;48.884;2.334;2023-08-31T02:49:51;5.53;;;1.10;;
70293;SDS011;72548;48.884;2.334;2023-08-31T02:52:17;6.55;;;1.40;;
70293;SDS011;72548;48.884;2.334;2023-08-31T02:54:42;5.47;;;1.43;;
70293;SDS011;72548;48.884;2.334;2023-08-31T02:57:08;11.30;;;1.40;;
70293;SDS011;72548;48.884;2.334;2023-08-31T02:59:34;8.48;;;1.75;;
70293;SDS011;72548;48.884;2.334;2023-08-31T03:02:01;8.88;;;1.30;;
70293;SDS011;72548;48.884;2.334;2023-08-31T03:04:28;8.55;;;1.58;;
70293;SDS011;72548;48.884;2.334;2023-08-31T03:06:56;6.03;;;1.40;;
70293;SDS011;72548;48.884;2.334;2023-08-31T03:09:22;5.95;;;1.23;;
70293;SDS011;72548;48.884;2.334;2023-08-31T03:14:33;5.55;;;1.33;;
70293;SDS011;72548;48.884;2.334;2023-08-31T03:20:21;5.07;;;1.25;;
70293;SDS011;72548;48.884;2.334;2023-08-31T03:22:47;7.67;;;1.43;;
70293;SDS011;72548;48.884;2.334;2023-08-31T03:25:13;7.72;;;1.17;;
70293;SDS011;72548;48.884;2.334;2023-08-31T03:30:55;10.30;;;2.25;;
70293;SDS011;72548;48.884;2.334;2023-08-31T03:33:30;7.87;;;1.20;;
70293;SDS011;72548;48.884;2.334;2023-08-31T03:36:23;7.72;;;1.65;;
70293;SDS011;72548;48.884;2.334;2023-08-31T03:38:50;6.07;;;1.13;;
70293;SDS011;72548;48.884;2.334;2023-08-31T03:44:18;8.45;;;1.90;;
70293;SDS011;72548;48.884;2.334;2023-08-31T03:46:45;8.67;;;1.83;;
70293;SDS011;72548;48.884;2.334;2023-08-31T03:49:13;6.55;;;1.10;;
70293;SDS011;72548;48.884;2.334;2023-08-31T03:52:12;7.90;;;0.77;;
70293;SDS011;72548;48.884;2.334;2023-08-31T03:54:30;4.65;;;0.80;;
70293;SDS011;72548;48.884;2.334;2023-08-31T03:56:58;5.50;;;1.00;;
70293;SDS011;72548;48.884;2.334;2023-08-31T03:59:24;7.25;;;1.40;;
70293;SDS011;72548;48.884;2.334;2023-08-31T04:01:50;6.65;;;1.10;;
70293;SDS011;72548;48.884;2.334;2023-08-31T04:14:41;9.32;;;1.48;;
70293;SDS011;72548;48.884;2.334;2023-08-31T04:18:02;7.67;;;1.83;;
70293;SDS011;72548;48.884;2.334;2023-08-31T04:24:02;5.50;;;1.02;;
70293;SDS011;72548;48.884;2.334;2023-08-31T04:26:28;10.57;;;1.80;;
70293;SDS011;72548;48.884;2.334;2023-08-31T04:32:22;5.37;;;0.93;;
70293;SDS011;72548;48.884;2.334;2023-08-31T04:35:02;7.10;;;1.45;;
70293;SDS011;72548;48.884;2.334;2023-08-31T04:37:32;10.02;;;1.42;;
70293;SDS011;72548;48.884;2.334;2023-08-31T04:39:58;6.65;;;1.40;;
70293;SDS011;72548;48.884;2.334;2023-08-31T04:45:23;9.50;;;1.35;;
70293;SDS011;72548;48.884;2.334;2023-08-31T04:47:48;8.53;;;1.20;;
70293;SDS011;72548;48.884;2.334;2023-08-31T04:50:18;6.28;;;1.40;;
70293;SDS011;72548;48.884;2.334;2023-08-31T04:52:50;7.82;;;1.70;;
70293;SDS011;72548;48.884;2.334;2023-08-31T05:01:18;6.97;;;1.60;;
70293;SDS011;72548;48.884;2.334;2023-08-31T05:03:43;7.90;;;1.45;;
70293;SDS011;72548;48.884;2.334;2023-08-31T05:06:10;8.20;;;1.27;;
70293;SDS011;72548;48.884;2.334;2023-08-31T05:08:37;8.00;;;1.80;;
70293;SDS011;72548;48.884;2.334;2023-08-31T05:11:20;8.53;;;1.50;;
70293;SDS011;72548;48.884;2.334;2023-08-31T05:13:45;9.32;;;1.10;;
70293;SDS011;72548;48.884;2.334;2023-08-31T05:16:13;6.22;;;1.63;;
70293;SDS011;72548;48.884;2.334;2023-08-31T05:18:40;7.43;;;1.50;;
70293;SDS011;72548;48.884;2.334;2023-08-31T05:21:05;6.15;;;1.70;;
70293;SDS011;72548;48.884;2.334;2023-08-31T05:23:33;7.67;;;1.17;;
70293;SDS011;72548;48.884;2.334;2023-08-31T05:25:59;7.10;;;1.25;;
70293;SDS011;72548;48.884;2.334;2023-08-31T05:28:32;8.35;;;1.48;;
70293;SDS011;72548;48.884;2.334;2023-08-31T05:30:59;4.85;;;1.38;;
70293;SDS011;72548;48.884;2.334;2023-08-31T05:33:28;9.30;;;1.60;;
70293;SDS011;72548;48.884;2.334;2023-08-31T05:35:54;7.18;;;1.45;;
70293;SDS011;72548;48.884;2.334;2023-08-31T05:38:21;8.88;;;2.17;;
70293;SDS011;72548;48.884;2.334;2023-08-31T05:40:46;7.65;;;1.30;;
70293;SDS011;72548;48.884;2.334;2023-08-31T05:43:13;4.88;;;1.25;;
70293;SDS011;72548;48.884;2.334;2023-08-31T05:45:38;9.97;;;1.43;;
70293;SDS011;72548;48.884;2.334;2023-08-31T05:48:05;7.17;;;1.10;;
70293;SDS011;72548;48.884;2.334;2023-08-31T05:50:31;7.07;;;1.27;;
70293;SDS011;72548;48.884;2.334;2023-08-31T05:52:56;7.27;;;1.10;;
70293;SDS011;72548;48.884;2.334;2023-08-31T05:55:22;7.00;;;1.10;;
70293;SDS011;72548;48.884;2.334;2023-08-31T05:57:47;10.33;;;1.20;;
70293;SDS011;72548;48.884;2.334;2023-08-31T06:00:13;6.07;;;1.27;;
70293;SDS011;72548;48.884;2.334;2023-08-31T06:02:38;8.00;;;1.67;;
70293;SDS011;72548;48.884;2.334;2023-08-31T06:05:04;12.33;;;1.70;;
70293;SDS011;72548;48.884;2.334;2023-08-31T06:07:30;8.85;;;1.85;;
70293;SDS011;72548;48.884;2.334;2023-08-31T06:09:56;11.88;;;1.55;;
70293;SDS011;72548;48.884;2.334;2023-08-31T06:12:22;12.03;;;1.50;;
70293;SDS011;72548;48.884;2.334;2023-08-31T06:14:48;7.97;;;1.20;;
70293;SDS011;72548;48.884;2.334;2023-08-31T06:17:14;12.23;;;1.33;;
70293;SDS011;72548;48.884;2.334;2023-08-31T06:19:40;6.20;;;1.20;;
70293;SDS011;72548;48.884;2.334;2023-08-31T06:22:06;8.40;;;1.50;;
70293;SDS011;72548;48.884;2.334;2023-08-31T06:24:32;8.10;;;1.30;;
70293;SDS011;72548;48.884;2.334;2023-08-31T06:26:59;9.98;;;2.15;;
70293;SDS011;72548;48.884;2.334;2023-08-31T06:29:24;8.03;;;1.70;;
70293;SDS011;72548;48.884;2.334;2023-08-31T06:31:50;7.57;;;0.90;;
70293;SDS011;72548;48.884;2.334;2023-08-31T06:34:15;6.88;;;1.20;;
70293;SDS011;72548;48.884;2.334;2023-08-31T06:36:40;12.63;;;1.23;;
70293;SDS011;72548;48.884;2.334;2023-08-31T06:39:06;10.50;;;1.77;;
70293;SDS011;72548;48.884;2.334;2023-08-31T06:41:32;8.30;;;1.10;;
70293;SDS011;72548;48.884;2.334;2023-08-31T06:43:57;7.13;;;1.00;;
70293;SDS011;72548;48.884;2.334;2023-08-31T06:46:23;9.73;;;1.43;;
70293;SDS011;72548;48.884;2.334;2023-08-31T06:48:48;9.40;;;1.43;;
70293;SDS011;72548;48.884;2.334;2023-08-31T06:51:14;8.38;;;1.20;;
70293;SDS011;72548;48.884;2.334;2023-08-31T06:53:41;8.63;;;1.00;;
70293;SDS011;72548;48.884;2.334;2023-08-31T06:56:07;11.57;;;1.40;;
70293;SDS011;72548;48.884;2.334;2023-08-31T06:58:32;9.60;;;1.00;;
70293;SDS011;72548;48.884;2.334;2023-08-31T07:00:57;8.45;;;1.48;;
70293;SDS011;72548;48.884;2.334;2023-08-31T07:03:23;10.50;;;2.03;;
70293;SDS011;72548;48.884;2.334;2023-08-31T07:05:48;10.93;;;1.63;;
70293;SDS011;72548;48.884;2.334;2023-08-31T07:08:14;11.37;;;3.17;;
70293;SDS011;72548;48.884;2.334;2023-08-31T07:10:40;8.75;;;1.02;;
70293;SDS011;72548;48.884;2.334;2023-08-31T07:13:06;11.30;;;1.83;;
70293;SDS011;72548;48.884;2.334;2023-08-31T07:15:31;6.77;;;1.53;;
70293;SDS011;72548;48.884;2.334;2023-08-31T07:17:56;11.73;;;1.20;;
70293;SDS011;72548;48.884;2.334;2023-08-31T07:20:22;8.17;;;1.60;;
70293;SDS011;72548;48.884;2.334;2023-08-31T07:22:47;7.20;;;1.50;;
70293;SDS011;72548;48.884;2.334;2023-08-31T07:25:13;8.30;;;1.73;;
70293;SDS011;72548;48.884;2.334;2023-08-31T07:27:38;8.73;;;1.60;;
70293;SDS011;72548;48.884;2.334;2023-08-31T07:30:04;8.43;;;1.37;;
70293;SDS011;72548;48.884;2.334;2023-08-31T07:32:30;15.18;;;3.80;;
70293;SDS011;72548;48.884;2.334;2023-08-31T07:34:56;10.50;;;2.60;;
70293;SDS011;72548;48.884;2.334;2023-08-31T07:37:24;10.87;;;1.27;;
70293;SDS011;72548;48.884;2.334;2023-08-31T07:39:49;11.85;;;2.00;;
70293;SDS011;72548;48.884;2.334;2023-08-31T07:42:15;12.87;;;2.17;;
70293;SDS011;72548;48.884;2.334;2023-08-31T07:44:41;12.00;;;1.85;;
70293;SDS011;72548;48.884;2.334;2023-08-31T07:47:07;9.90;;;1.50;;
70293;SDS011;72548;48.884;2.334;2023-08-31T07:49:32;8.07;;;1.70;;
70293;SDS011;72548;48.884;2.334;2023-08-31T07:51:58;9.00;;;1.70;;
70293;SDS011;72548;48.884;2.334;2023-08-31T07:54:23;9.57;;;1.37;;
70293;SDS011;72548;48.884;2.334;2023-08-31T07:56:49;11.27;;;1.50;;
70293;SDS011;72548;48.884;2.334;2023-08-31T07:59:16;6.63;;;0.93;;
70293;SDS011;72548;48.884;2.334;2023-08-31T08:01:42;10.10;;;1.75;;
70293;SDS011;72548;48.884;2.334;2023-08-31T08:04:07;8.70;;;1.00;;
70293;SDS011;72548;48.884;2.334;2023-08-31T08:06:33;11.87;;;2.20;;
70293;SDS011;72548;48.884;2.334;2023-08-31T08:08:58;6.82;;;1.63;;
70293;SDS011;72548;48.884;2.334;2023-08-31T08:11:23;6.73;;;1.13;;
70293;SDS011;72548;48.884;2.334;2023-08-31T08:13:49;7.23;;;1.17;;
70293;SDS011;72548;48.884;2.334;2023-08-31T08:16:14;8.20;;;1.37;;
70293;SDS011;72548;48.884;2.334;2023-08-31T08:18:40;10.03;;;2.07;;
70293;SDS011;72548;48.884;2.334;2023-08-31T08:21:06;11.23;;;1.52;;
70293;SDS011;72548;48.884;2.334;2023-08-31T08:23:31;11.60;;;1.50;;
70293;SDS011;72548;48.884;2.334;2023-08-31T08:25:56;6.88;;;1.45;;
70293;SDS011;72548;48.884;2.334;2023-08-31T08:28:24;10.40;;;1.10;;
70293;SDS011;72548;48.884;2.334;2023-08-31T08:30:53;9.05;;;1.20;;
70293;SDS011;72548;48.884;2.334;2023-08-31T08:33:18;7.90;;;1.63;;
70293;SDS011;72548;48.884;2.334;2023-08-31T08:35:43;7.25;;;1.40;;
70293;SDS011;72548;48.884;2.334;2023-08-31T08:38:09;10.23;;;1.17;;
70293;SDS011;72548;48.884;2.334;2023-08-31T08:40:34;7.13;;;1.07;;
70293;SDS011;72548;48.884;2.334;2023-08-31T08:43:01;9.73;;;1.30;;
70293;SDS011;72548;48.884;2.334;2023-08-31T08:45:37;10.50;;;1.17;;
70293;SDS011;72548;48.884;2.334;2023-08-31T08:48:06;12.75;;;1.75;;
70293;SDS011;72548;48.884;2.334;2023-08-31T08:50:32;7.53;;;1.27;;
70293;SDS011;72548;48.884;2.334;2023-08-31T08:53:02;6.65;;;1.67;;
70293;SDS011;72548;48.884;2.334;2023-08-31T08:55:29;6.90;;;1.37;;
70293;SDS011;72548;48.884;2.334;2023-08-31T08:57:55;9.20;;;1.58;;
70293;SDS011;72548;48.884;2.334;2023-08-31T09:00:21;12.27;;;1.80;;
70293;SDS011;72548;48.884;2.334;2023-08-31T09:02:46;8.30;;;1.50;;
70293;SDS011;72548;48.884;2.334;2023-08-31T09:05:12;11.55;;;1.95;;
70293;SDS011;72548;48.884;2.334;2023-08-31T09:07:38;10.37;;;1.43;;
70293;SDS011;72548;48.884;2.334;2023-08-31T09:10:04;5.30;;;1.23;;
70293;SDS011;72548;48.884;2.334;2023-08-31T09:12:30;8.20;;;1.43;;
70293;SDS011;72548;48.884;2.334;2023-08-31T09:17:24;11.43;;;1.90;;
70293;SDS011;72548;48.884;2.334;2023-08-31T09:20:08;14.70;;;1.75;;
70293;SDS011;72548;48.884;2.334;2023-08-31T09:22:34;5.47;;;1.08;;
70293;SDS011;72548;48.884;2.334;2023-08-31T09:25:00;11.20;;;2.57;;
70293;SDS011;72548;48.884;2.334;2023-08-31T09:28:19;9.83;;;2.17;;
70293;SDS011;72548;48.884;2.334;2023-08-31T09:30:21;10.80;;;1.33;;
70293;SDS011;72548;48.884;2.334;2023-08-31T09:33:01;9.80;;;1.70;;
70293;SDS011;72548;48.884;2.334;2023-08-31T09:35:29;8.30;;;1.40;;
70293;SDS011;72548;48.884;2.334;2023-08-31T09:37:55;8.93;;;1.17;;
70293;SDS011;72548;48.884;2.334;2023-08-31T09:40:30;9.20;;;1.80;;
70293;SDS011;72548;48.884;2.334;2023-08-31T09:42:55;8.52;;;1.48;;
70293;SDS011;72548;48.884;2.334;2023-08-31T09:45:25;7.90;;;1.77;;
70293;SDS011;72548;48.884;2.334;2023-08-31T09:47:59;7.55;;;0.93;;
70293;SDS011;72548;48.884;2.334;2023-08-31T09:50:28;12.00;;;1.88;;
70293;SDS011;72548;48.884;2.334;2023-08-31T09:52:58;9.88;;;1.73;;
70293;SDS011;72548;48.884;2.334;2023-08-31T09:55:29;11.05;;;2.15;;
70293;SDS011;72548;48.884;2.334;2023-08-31T09:58:00;7.27;;;1.50;;
70293;SDS011;72548;48.884;2.334;2023-08-31T10:00:28;10.95;;;2.05;;
70293;SDS011;72548;48.884;2.334;2023-08-31T10:02:55;10.45;;;2.38;;
70293;SDS011;72548;48.884;2.334;2023-08-31T10:05:40;10.15;;;1.90;;
70293;SDS011;72548;48.884;2.334;2023-08-31T10:08:06;10.23;;;1.83;;
70293;SDS011;72548;48.884;2.334;2023-08-31T10:10:32;16.15;;;2.60;;
70293;SDS011;72548;48.884;2.334;2023-08-31T10:12:58;12.27;;;1.95;;
70293;SDS011;72548;48.884;2.334;2023-08-31T10:15:25;7.07;;;1.20;;
70293;SDS011;72548;48.884;2.334;2023-08-31T10:17:56;13.00;;;2.03;;
70293;SDS011;72548;48.884;2.334;2023-08-31T10:20:21;8.30;;;1.75;;
70293;SDS011;72548;48.884;2.334;2023-08-31T10:22:47;11.30;;;1.80;;
70293;SDS011;72548;48.884;2.334;2023-08-31T10:25:13;11.43;;;2.75;;
70293;SDS011;72548;48.884;2.334;2023-08-31T10:27:39;10.60;;;2.17;;
70293;SDS011;72548;48.884;2.334;2023-08-31T10:33:01;8.85;;;2.08;;
70293;SDS011;72548;48.884;2.334;2023-08-31T10:38:24;9.73;;;2.13;;
70293;SDS011;72548;48.884;2.334;2023-08-31T10:41:00;11.23;;;1.50;;
70293;SDS011;72548;48.884;2.334;2023-08-31T10:43:27;10.65;;;1.88;;
70293;SDS011;72548;48.884;2.334;2023-08-31T10:46:27;8.68;;;1.60;;
70293;SDS011;72548;48.884;2.334;2023-08-31T10:51:35;11.48;;;2.25;;
70293;SDS011;72548;48.884;2.334;2023-08-31T10:54:13;9.80;;;2.20;;
70293;SDS011;72548;48.884;2.334;2023-08-31T10:56:51;11.60;;;2.25;;
70293;SDS011;72548;48.884;2.334;2023-08-31T10:59:26;12.00;;;2.45;;
70293;SDS011;72548;48.884;2.334;2023-08-31T11:02:05;9.32;;;2.33;;
70293;SDS011;72548;48.884;2.334;2023-08-31T11:04:38;9.15;;;2.30;;
70293;SDS011;72548;48.884;2.334;2023-08-31T11:07:18;13.53;;;2.10;;
70293;SDS011;72548;48.884;2.334;2023-08-31T11:09:45;14.95;;;4.20;;
70293;SDS011;72548;48.884;2.334;2023-08-31T11:12:11;10.85;;;2.20;;
70293;SDS011;72548;48.884;2.334;2023-08-31T11:14:37;14.38;;;3.13;;
70293;SDS011;72548;48.884;2.334;2023-08-31T11:17:07;8.95;;;2.63;;
70293;SDS011;72548;48.884;2.334;2023-08-31T11:19:34;8.97;;;1.97;;
70293;SDS011;72548;48.884;2.334;2023-08-31T11:22:01;9.38;;;2.08;;
70293;SDS011;72548;48.884;2.334;2023-08-31T11:24:28;13.50;;;2.58;;
70293;SDS011;72548;48.884;2.334;2023-08-31T11:26:55;9.77;;;2.28;;
70293;SDS011;72548;48.884;2.334;2023-08-31T11:29:22;12.75;;;2.40;;
70293;SDS011;72548;48.884;2.334;2023-08-31T11:31:48;9.00;;;1.70;;
70293;SDS011;72548;48.884;2.334;2023-08-31T11:34:15;8.75;;;1.73;;
70293;SDS011;72548;48.884;2.334;2023-08-31T11:36:43;10.95;;;2.50;;
70293;SDS011;72548;48.884;2.334;2023-08-31T11:39:13;11.48;;;2.47;;
70293;SDS011;72548;48.884;2.334;2023-08-31T11:41:39;9.57;;;2.17;;
70293;SDS011;72548;48.884;2.334;2023-08-31T11:44:09;10.55;;;1.80;;
70293;SDS011;72548;48.884;2.334;2023-08-31T11:46:36;10.60;;;1.52;;
70293;SDS011;72548;48.884;2.334;2023-08-31T11:49:03;6.40;;;1.40;;
70293;SDS011;72548;48.884;2.334;2023-08-31T11:51:33;9.20;;;2.70;;
70293;SDS011;72548;48.884;2.334;2023-08-31T11:54:08;8.57;;;2.00;;
70293;SDS011;72548;48.884;2.334;2023-08-31T11:56:38;8.60;;;1.65;;
70293;SDS011;72548;48.884;2.334;2023-08-31T11:59:18;8.70;;;2.10;;
70293;SDS011;72548;48.884;2.334;2023-08-31T12:04:28;10.63;;;1.97;;
70293;SDS011;72548;48.884;2.334;2023-08-31T12:06:58;9.95;;;1.65;;
70293;SDS011;72548;48.884;2.334;2023-08-31T12:09:29;7.55;;;1.15;;
70293;SDS011;72548;48.884;2.334;2023-08-31T12:11:55;8.75;;;1.38;;
70293;SDS011;72548;48.884;2.334;2023-08-31T12:14:24;7.10;;;1.93;;
70293;SDS011;72548;48.884;2.334;2023-08-31T12:16:51;9.82;;;1.55;;
70293;SDS011;72548;48.884;2.334;2023-08-31T12:19:17;9.52;;;2.00;;
70293;SDS011;72548;48.884;2.334;2023-08-31T12:21:44;12.13;;;1.88;;
70293;SDS011;72548;48.884;2.334;2023-08-31T12:24:17;10.80;;;1.95;;
70293;SDS011;72548;48.884;2.334;2023-08-31T12:26:42;10.73;;;2.10;;
70293;SDS011;72548;48.884;2.334;2023-08-31T12:29:08;8.50;;;2.10;;
70293;SDS011;72548;48.884;2.334;2023-08-31T12:31:34;7.20;;;1.77;;
70293;SDS011;72548;48.884;2.334;2023-08-31T12:33:59;10.27;;;1.83;;
70293;SDS011;72548;48.884;2.334;2023-08-31T12:36:25;6.97;;;1.40;;
70293;SDS011;72548;48.884;2.334;2023-08-31T12:38:51;11.80;;;1.70;;
70293;SDS011;72548;48.884;2.334;2023-08-31T12:41:17;9.67;;;1.60;;
70293;SDS011;72548;48.884;2.334;2023-08-31T12:43:43;12.52;;;2.05;;
70293;SDS011;72548;48.884;2.334;2023-08-31T12:46:08;6.60;;;2.00;;
70293;SDS011;72548;48.884;2.334;2023-08-31T12:48:34;6.60;;;2.50;;
70293;SDS011;72548;48.884;2.334;2023-08-31T12:51:00;10.05;;;2.75;;
70293;SDS011;72548;48.884;2.334;2023-08-31T12:53:26;9.73;;;2.73;;
70293;SDS011;72548;48.884;2.334;2023-08-31T12:55:52;10.33;;;2.57;;
70293;SDS011;72548;48.884;2.334;2023-08-31T12:58:18;8.32;;;1.85;;
70293;SDS011;72548;48.884;2.334;2023-08-31T13:00:44;10.32;;;2.38;;
70293;SDS011;72548;48.884;2.334;2023-08-31T13:03:11;11.07;;;2.93;;
70293;SDS011;72548;48.884;2.334;2023-08-31T13:05:47;9.35;;;3.00;;
70293;SDS011;72548;48.884;2.334;2023-08-31T13:08:12;10.55;;;2.13;;
70293;SDS011;72548;48.884;2.334;2023-08-31T13:10:37;9.73;;;3.20;;
70293;SDS011;72548;48.884;2.334;2023-08-31T13:13:03;10.00;;;2.70;;
70293;SDS011;72548;48.884;2.334;2023-08-31T13:15:46;7.43;;;2.10;;
70293;SDS011;72548;48.884;2.334;2023-08-31T13:18:12;6.55;;;1.92;;
70293;SDS011;72548;48.884;2.334;2023-08-31T13:20:37;10.93;;;2.43;;
70293;SDS011;72548;48.884;2.334;2023-08-31T13:23:03;7.82;;;2.53;;
70293;SDS011;72548;48.884;2.334;2023-08-31T13:25:31;11.77;;;2.77;;
70293;SDS011;72548;48.884;2.334;2023-08-31T13:27:57;8.73;;;2.60;;
70293;SDS011;72548;48.884;2.334;2023-08-31T13:30:23;7.80;;;2.07;;
70293;SDS011;72548;48.884;2.334;2023-08-31T13:32:48;10.40;;;2.30;;
70293;SDS011;72548;48.884;2.334;2023-08-31T13:35:13;9.68;;;2.85;;
70293;SDS011;72548;48.884;2.334;2023-08-31T13:37:39;14.37;;;2.90;;
70293;SDS011;72548;48.884;2.334;2023-08-31T13:40:05;12.25;;;3.30;;
70293;SDS011;72548;48.884;2.334;2023-08-31T13:42:35;12.00;;;3.20;;
70293;SDS011;72548;48.884;2.334;2023-08-31T13:45:07;13.77;;;4.00;;
70293;SDS011;72548;48.884;2.334;2023-08-31T13:47:39;13.32;;;3.58;;
70293;SDS011;72548;48.884;2.334;2023-08-31T13:50:04;13.73;;;4.00;;
70293;SDS011;72548;48.884;2.334;2023-08-31T13:52:30;12.67;;;3.37;;
70293;SDS011;72548;48.884;2.334;2023-08-31T13:54:55;11.13;;;3.80;;
70293;SDS011;72548;48.884;2.334;2023-08-31T13:57:20;16.70;;;6.22;;
70293;SDS011;72548;48.884;2.334;2023-08-31T13:59:46;11.53;;;4.03;;
70293;SDS011;72548;48.884;2.334;2023-08-31T14:02:11;11.07;;;3.53;;
70293;SDS011;72548;48.884;2.334;2023-08-31T14:04:37;6.47;;;2.43;;
70293;SDS011;72548;48.884;2.334;2023-08-31T14:07:02;10.40;;;2.13;;
70293;SDS011;72548;48.884;2.334;2023-08-31T14:09:28;7.28;;;2.55;;
70293;SDS011;72548;48.884;2.334;2023-08-31T14:11:53;8.63;;;2.60;;
70293;SDS011;72548;48.884;2.334;2023-08-31T14:14:21;7.63;;;2.85;;
70293;SDS011;72548;48.884;2.334;2023-08-31T14:16:47;5.05;;;1.60;;
70293;SDS011;72548;48.884;2.334;2023-08-31T14:19:12;5.17;;;1.80;;
70293;SDS011;72548;48.884;2.334;2023-08-31T14:21:38;5.50;;;1.87;;
70293;SDS011;72548;48.884;2.334;2023-08-31T14:24:03;5.50;;;1.55;;
70293;SDS011;72548;48.884;2.334;2023-08-31T14:26:29;4.77;;;1.33;;
70293;SDS011;72548;48.884;2.334;2023-08-31T14:28:54;4.37;;;1.70;;
70293;SDS011;72548;48.884;2.334;2023-08-31T14:31:20;6.03;;;1.70;;
70293;SDS011;72548;48.884;2.334;2023-08-31T14:33:46;5.78;;;1.80;;
70293;SDS011;72548;48.884;2.334;2023-08-31T14:36:13;4.70;;;1.23;;
70293;SDS011;72548;48.884;2.334;2023-08-31T14:38:39;7.13;;;1.67;;
70293;SDS011;72548;48.884;2.334;2023-08-31T14:41:05;5.70;;;1.53;;
70293;SDS011;72548;48.884;2.334;2023-08-31T14:43:31;6.05;;;2.05;;
70293;SDS011;72548;48.884;2.334;2023-08-31T14:45:59;5.83;;;1.87;;
70293;SDS011;72548;48.884;2.334;2023-08-31T14:48:29;5.10;;;1.80;;
70293;SDS011;72548;48.884;2.334;2023-08-31T14:50:55;5.43;;;1.73;;
70293;SDS011;72548;48.884;2.334;2023-08-31T14:53:23;5.35;;;1.83;;
70293;SDS011;72548;48.884;2.334;2023-08-31T14:58:24;3.83;;;0.93;;
70293;SDS011;72548;48.884;2.334;2023-08-31T15:00:51;4.20;;;1.58;;
70293;SDS011;72548;48.884;2.334;2023-08-31T15:03:20;4.93;;;1.40;;
70293;SDS011;72548;48.884;2.334;2023-08-31T15:05:48;5.32;;;1.50;;
70293;SDS011;72548;48.884;2.334;2023-08-31T15:08:14;4.85;;;1.55;;
70293;SDS011;72548;48.884;2.334;2023-08-31T15:10:39;4.67;;;1.17;;
70293;SDS011;72548;48.884;2.334;2023-08-31T15:13:05;4.37;;;1.10;;
70293;SDS011;72548;48.884;2.334;2023-08-31T15:15:31;4.35;;;1.10;;
70293;SDS011;72548;48.884;2.334;2023-08-31T15:17:56;5.23;;;1.33;;
70293;SDS011;72548;48.884;2.334;2023-08-31T15:20:22;4.07;;;0.97;;
70293;SDS011;72548;48.884;2.334;2023-08-31T15:22:48;3.97;;;1.27;;
70293;SDS011;72548;48.884;2.334;2023-08-31T15:25:14;4.80;;;1.03;;
70293;SDS011;72548;48.884;2.334;2023-08-31T15:27:40;5.60;;;1.50;;
70293;SDS011;72548;48.884;2.334;2023-08-31T15:30:06;4.50;;;1.52;;
70293;SDS011;72548;48.884;2.334;2023-08-31T15:32:37;3.83;;;0.97;;
70293;SDS011;72548;48.884;2.334;2023-08-31T15:35:03;4.07;;;1.13;;
70293;SDS011;72548;48.884;2.334;2023-08-31T15:37:29;3.65;;;1.30;;
70293;SDS011;72548;48.884;2.334;2023-08-31T15:39:55;5.07;;;1.77;;
70293;SDS011;72548;48.884;2.334;2023-08-31T15:42:22;5.23;;;1.30;;
70293;SDS011;72548;48.884;2.334;2023-08-31T15:44:50;4.40;;;1.13;;
70293;SDS011;72548;48.884;2.334;2023-08-31T15:47:17;4.63;;;1.65;;
70293;SDS011;72548;48.884;2.334;2023-08-31T15:49:42;5.03;;;1.60;;
70293;SDS011;72548;48.884;2.334;2023-08-31T15:52:08;5.57;;;1.30;;
70293;SDS011;72548;48.884;2.334;2023-08-31T15:54:33;4.33;;;1.00;;
70293;SDS011;72548;48.884;2.334;2023-08-31T15:56:58;5.97;;;2.03;;
70293;SDS011;72548;48.884;2.334;2023-08-31T15:59:24;4.87;;;1.70;;
70293;SDS011;72548;48.884;2.334;2023-08-31T16:01:49;5.30;;;1.80;;
70293;SDS011;72548;48.884;2.334;2023-08-31T16:04:15;4.47;;;1.60;;
70293;SDS011;72548;48.884;2.334;2023-08-31T16:06:40;6.37;;;1.43;;
70293;SDS011;72548;48.884;2.334;2023-08-31T16:09:06;6.03;;;1.33;;
70293;SDS011;72548;48.884;2.334;2023-08-31T16:11:32;5.05;;;2.00;;
70293;SDS011;72548;48.884;2.334;2023-08-31T16:13:58;6.63;;;1.73;;
70293;SDS011;72548;48.884;2.334;2023-08-31T16:16:24;6.83;;;2.07;;
70293;SDS011;72548;48.884;2.334;2023-08-31T16:18:50;4.82;;;1.67;;
70293;SDS011;72548;48.884;2.334;2023-08-31T16:21:15;4.77;;;1.70;;
70293;SDS011;72548;48.884;2.334;2023-08-31T16:23:41;5.37;;;2.13;;
70293;SDS011;72548;48.884;2.334;2023-08-31T16:26:08;5.80;;;2.17;;
70293;SDS011;72548;48.884;2.334;2023-08-31T16:28:33;6.57;;;2.45;;
70293;SDS011;72548;48.884;2.334;2023-08-31T16:31:01;6.20;;;1.90;;